sensor_id;sensor_type;location;lat;lon;timestamp;P1;durP1;ratioP1;P2;durP2;ratioP2
29044;SDS011;16133;49.486;12.176;2023-03-01T00:00:45;42.88;;;17.70;;
29044;SDS011;16133;49.486;12.176;2023-03-01T00:03:11;43.67;;;17.10;;
29044;SDS011;16133;49.486;12.176;2023-03-01T00:05:43;42.08;;;17.15;;
29044;SDS011;16133;49.486;12.176;2023-03-01T00:08:09;44.88;;;16.92;;
29044;SDS011;16133;49.486;12.176;2023-03-01T00:10:34;47.95;;;19.25;;
29044;SDS011;16133;49.486;12.176;2023-03-01T00:12:59;42.88;;;16.88;;
29044;SDS011;16133;49.486;12.176;2023-03-01T00:15:25;39.17;;;16.90;;
29044;SDS011;16133;49.486;12.176;2023-03-01T00:17:50;42.15;;;17.38;;
29044;SDS011;16133;49.486;12.176;2023-03-01T00:20:15;47.00;;;17.63;;
29044;SDS011;16133;49.486;12.176;2023-03-01T00:22:41;53.15;;;19.27;;
29044;SDS011;16133;49.486;12.176;2023-03-01T00:25:07;42.63;;;18.35;;
29044;SDS011;16133;49.486;12.176;2023-03-01T00:27:32;50.92;;;18.98;;
29044;SDS011;16133;49.486;12.176;2023-03-01T00:29:58;40.97;;;17.90;;
29044;SDS011;16133;49.486;12.176;2023-03-01T00:32:23;49.35;;;18.85;;
29044;SDS011;16133;49.486;12.176;2023-03-01T00:34:49;48.03;;;18.85;;
29044;SDS011;16133;49.486;12.176;2023-03-01T00:37:20;49.72;;;20.35;;
29044;SDS011;16133;49.486;12.176;2023-03-01T00:39:46;49.53;;;18.45;;
29044;SDS011;16133;49.486;12.176;2023-03-01T00:42:13;44.55;;;17.48;;
29044;SDS011;16133;49.486;12.176;2023-03-01T00:44:38;42.03;;;16.80;;
29044;SDS011;16133;49.486;12.176;2023-03-01T00:47:04;42.88;;;16.73;;
29044;SDS011;16133;49.486;12.176;2023-03-01T00:49:29;39.88;;;15.82;;
29044;SDS011;16133;49.486;12.176;2023-03-01T00:51:54;42.13;;;18.45;;
29044;SDS011;16133;49.486;12.176;2023-03-01T00:54:20;43.10;;;19.60;;
29044;SDS011;16133;49.486;12.176;2023-03-01T00:56:45;42.92;;;17.77;;
29044;SDS011;16133;49.486;12.176;2023-03-01T00:59:10;50.13;;;19.60;;
29044;SDS011;16133;49.486;12.176;2023-03-01T01:01:36;45.13;;;18.48;;
29044;SDS011;16133;49.486;12.176;2023-03-01T01:04:11;45.72;;;18.65;;
29044;SDS011;16133;49.486;12.176;2023-03-01T01:06:42;41.38;;;16.95;;
29044;SDS011;16133;49.486;12.176;2023-03-01T01:09:10;44.80;;;18.40;;
29044;SDS011;16133;49.486;12.176;2023-03-01T01:11:42;46.85;;;17.30;;
29044;SDS011;16133;49.486;12.176;2023-03-01T01:14:08;44.28;;;17.42;;
29044;SDS011;16133;49.486;12.176;2023-03-01T01:16:33;44.15;;;18.50;;
29044;SDS011;16133;49.486;12.176;2023-03-01T01:18:58;50.38;;;17.95;;
29044;SDS011;16133;49.486;12.176;2023-03-01T01:21:24;45.05;;;18.08;;
29044;SDS011;16133;49.486;12.176;2023-03-01T01:23:50;48.80;;;18.80;;
29044;SDS011;16133;49.486;12.176;2023-03-01T01:28:43;42.25;;;17.52;;
29044;SDS011;16133;49.486;12.176;2023-03-01T01:31:08;46.83;;;18.73;;
29044;SDS011;16133;49.486;12.176;2023-03-01T01:33:33;51.85;;;19.10;;
29044;SDS011;16133;49.486;12.176;2023-03-01T01:35:59;60.80;;;22.73;;
29044;SDS011;16133;49.486;12.176;2023-03-01T01:38:25;59.13;;;22.27;;
29044;SDS011;16133;49.486;12.176;2023-03-01T01:40:50;64.70;;;22.77;;
29044;SDS011;16133;49.486;12.176;2023-03-01T01:43:18;50.45;;;19.95;;
29044;SDS011;16133;49.486;12.176;2023-03-01T01:45:48;51.35;;;19.63;;
29044;SDS011;16133;49.486;12.176;2023-03-01T01:48:16;59.17;;;21.55;;
29044;SDS011;16133;49.486;12.176;2023-03-01T01:50:45;52.30;;;18.65;;
29044;SDS011;16133;49.486;12.176;2023-03-01T01:53:20;48.88;;;19.05;;
29044;SDS011;16133;49.486;12.176;2023-03-01T01:55:47;46.20;;;18.42;;
29044;SDS011;16133;49.486;12.176;2023-03-01T01:58:17;43.83;;;17.67;;
29044;SDS011;16133;49.486;12.176;2023-03-01T02:00:45;47.03;;;18.08;;
29044;SDS011;16133;49.486;12.176;2023-03-01T02:03:11;53.05;;;21.48;;
29044;SDS011;16133;49.486;12.176;2023-03-01T02:08:33;51.53;;;18.65;;
29044;SDS011;16133;49.486;12.176;2023-03-01T02:11:02;50.33;;;21.83;;
29044;SDS011;16133;49.486;12.176;2023-03-01T02:13:29;56.47;;;21.20;;
29044;SDS011;16133;49.486;12.176;2023-03-01T02:15:56;54.42;;;20.55;;
29044;SDS011;16133;49.486;12.176;2023-03-01T02:18:22;59.65;;;23.48;;
29044;SDS011;16133;49.486;12.176;2023-03-01T02:20:52;60.13;;;22.25;;
29044;SDS011;16133;49.486;12.176;2023-03-01T02:23:30;59.65;;;21.80;;
29044;SDS011;16133;49.486;12.176;2023-03-01T02:28:56;53.53;;;21.38;;
29044;SDS011;16133;49.486;12.176;2023-03-01T02:31:21;56.28;;;20.50;;
29044;SDS011;16133;49.486;12.176;2023-03-01T02:34:06;57.95;;;20.33;;
29044;SDS011;16133;49.486;12.176;2023-03-01T02:36:37;51.13;;;21.10;;
29044;SDS011;16133;49.486;12.176;2023-03-01T02:39:06;55.67;;;19.88;;
29044;SDS011;16133;49.486;12.176;2023-03-01T02:41:40;50.55;;;20.98;;
29044;SDS011;16133;49.486;12.176;2023-03-01T02:44:08;47.00;;;18.80;;
29044;SDS011;16133;49.486;12.176;2023-03-01T02:46:41;52.25;;;19.05;;
29044;SDS011;16133;49.486;12.176;2023-03-01T02:49:28;54.35;;;20.90;;
29044;SDS011;16133;49.486;12.176;2023-03-01T02:54:41;50.35;;;18.58;;
29044;SDS011;16133;49.486;12.176;2023-03-01T02:57:13;41.60;;;18.38;;
29044;SDS011;16133;49.486;12.176;2023-03-01T02:59:38;42.97;;;16.92;;
29044;SDS011;16133;49.486;12.176;2023-03-01T03:02:05;48.38;;;18.90;;
29044;SDS011;16133;49.486;12.176;2023-03-01T03:04:31;45.58;;;17.95;;
29044;SDS011;16133;49.486;12.176;2023-03-01T03:06:57;46.17;;;19.33;;
29044;SDS011;16133;49.486;12.176;2023-03-01T03:09:22;47.75;;;18.15;;
29044;SDS011;16133;49.486;12.176;2023-03-01T03:11:47;47.50;;;18.70;;
29044;SDS011;16133;49.486;12.176;2023-03-01T03:14:14;57.25;;;20.58;;
29044;SDS011;16133;49.486;12.176;2023-03-01T03:16:42;46.22;;;18.65;;
29044;SDS011;16133;49.486;12.176;2023-03-01T03:19:08;56.28;;;19.13;;
29044;SDS011;16133;49.486;12.176;2023-03-01T03:21:34;51.95;;;20.08;;
29044;SDS011;16133;49.486;12.176;2023-03-01T03:23:59;44.00;;;17.48;;
29044;SDS011;16133;49.486;12.176;2023-03-01T03:26:25;49.10;;;20.00;;
29044;SDS011;16133;49.486;12.176;2023-03-01T03:28:50;44.50;;;17.58;;
29044;SDS011;16133;49.486;12.176;2023-03-01T03:31:16;51.75;;;18.80;;
29044;SDS011;16133;49.486;12.176;2023-03-01T03:33:41;48.55;;;18.98;;
29044;SDS011;16133;49.486;12.176;2023-03-01T03:36:06;45.67;;;18.65;;
29044;SDS011;16133;49.486;12.176;2023-03-01T03:38:38;49.33;;;18.65;;
29044;SDS011;16133;49.486;12.176;2023-03-01T03:41:05;52.05;;;19.92;;
29044;SDS011;16133;49.486;12.176;2023-03-01T03:43:33;53.00;;;18.95;;
29044;SDS011;16133;49.486;12.176;2023-03-01T03:46:01;49.55;;;19.83;;
29044;SDS011;16133;49.486;12.176;2023-03-01T03:48:36;52.78;;;17.83;;
29044;SDS011;16133;49.486;12.176;2023-03-01T03:51:03;44.55;;;18.25;;
29044;SDS011;16133;49.486;12.176;2023-03-01T03:53:31;46.85;;;17.15;;
29044;SDS011;16133;49.486;12.176;2023-03-01T03:55:57;47.95;;;19.40;;
29044;SDS011;16133;49.486;12.176;2023-03-01T03:58:23;46.20;;;18.52;;
29044;SDS011;16133;49.486;12.176;2023-03-01T04:00:51;44.63;;;17.58;;
29044;SDS011;16133;49.486;12.176;2023-03-01T04:03:18;45.42;;;18.73;;
29044;SDS011;16133;49.486;12.176;2023-03-01T04:05:45;42.15;;;16.17;;
29044;SDS011;16133;49.486;12.176;2023-03-01T04:08:11;46.70;;;18.42;;
29044;SDS011;16133;49.486;12.176;2023-03-01T04:10:38;55.38;;;19.85;;
29044;SDS011;16133;49.486;12.176;2023-03-01T04:13:08;49.33;;;19.63;;
29044;SDS011;16133;49.486;12.176;2023-03-01T04:15:35;54.05;;;20.88;;
29044;SDS011;16133;49.486;12.176;2023-03-01T04:18:01;45.70;;;18.92;;
29044;SDS011;16133;49.486;12.176;2023-03-01T04:20:28;49.17;;;19.60;;
29044;SDS011;16133;49.486;12.176;2023-03-01T04:23:00;47.58;;;19.73;;
29044;SDS011;16133;49.486;12.176;2023-03-01T04:25:48;57.40;;;20.38;;
29044;SDS011;16133;49.486;12.176;2023-03-01T04:28:41;49.50;;;19.98;;
29044;SDS011;16133;49.486;12.176;2023-03-01T04:31:10;45.97;;;18.30;;
29044;SDS011;16133;49.486;12.176;2023-03-01T04:33:41;56.05;;;20.25;;
29044;SDS011;16133;49.486;12.176;2023-03-01T04:36:09;50.92;;;20.98;;
29044;SDS011;16133;49.486;12.176;2023-03-01T04:38:39;47.65;;;18.67;;
29044;SDS011;16133;49.486;12.176;2023-03-01T04:41:09;49.58;;;19.08;;
29044;SDS011;16133;49.486;12.176;2023-03-01T04:43:36;51.28;;;20.02;;
29044;SDS011;16133;49.486;12.176;2023-03-01T04:46:05;51.60;;;18.83;;
29044;SDS011;16133;49.486;12.176;2023-03-01T04:48:34;58.65;;;20.25;;
29044;SDS011;16133;49.486;12.176;2023-03-01T04:51:03;50.38;;;18.77;;
29044;SDS011;16133;49.486;12.176;2023-03-01T04:53:28;47.85;;;19.23;;
29044;SDS011;16133;49.486;12.176;2023-03-01T04:55:54;49.35;;;20.25;;
29044;SDS011;16133;49.486;12.176;2023-03-01T04:58:24;53.50;;;20.13;;
29044;SDS011;16133;49.486;12.176;2023-03-01T05:00:51;58.65;;;19.40;;
29044;SDS011;16133;49.486;12.176;2023-03-01T05:03:18;50.60;;;19.98;;
29044;SDS011;16133;49.486;12.176;2023-03-01T05:05:45;56.25;;;20.67;;
29044;SDS011;16133;49.486;12.176;2023-03-01T05:08:12;56.58;;;20.58;;
29044;SDS011;16133;49.486;12.176;2023-03-01T05:10:42;51.80;;;19.30;;
29044;SDS011;16133;49.486;12.176;2023-03-01T05:13:09;56.78;;;20.80;;
29044;SDS011;16133;49.486;12.176;2023-03-01T05:15:34;68.90;;;26.10;;
29044;SDS011;16133;49.486;12.176;2023-03-01T05:18:01;73.45;;;27.92;;
29044;SDS011;16133;49.486;12.176;2023-03-01T05:20:27;63.78;;;25.20;;
29044;SDS011;16133;49.486;12.176;2023-03-01T05:22:55;79.18;;;30.15;;
29044;SDS011;16133;49.486;12.176;2023-03-01T05:25:24;72.97;;;27.90;;
29044;SDS011;16133;49.486;12.176;2023-03-01T05:27:50;81.32;;;27.85;;
29044;SDS011;16133;49.486;12.176;2023-03-01T05:30:16;74.57;;;30.35;;
29044;SDS011;16133;49.486;12.176;2023-03-01T05:32:43;75.30;;;31.67;;
29044;SDS011;16133;49.486;12.176;2023-03-01T05:35:13;79.47;;;31.08;;
29044;SDS011;16133;49.486;12.176;2023-03-01T05:37:43;72.82;;;26.42;;
29044;SDS011;16133;49.486;12.176;2023-03-01T05:40:11;61.83;;;23.90;;
29044;SDS011;16133;49.486;12.176;2023-03-01T05:42:41;60.22;;;23.17;;
29044;SDS011;16133;49.486;12.176;2023-03-01T05:45:08;64.72;;;23.70;;
29044;SDS011;16133;49.486;12.176;2023-03-01T05:47:34;61.13;;;23.05;;
29044;SDS011;16133;49.486;12.176;2023-03-01T05:50:00;55.63;;;22.27;;
29044;SDS011;16133;49.486;12.176;2023-03-01T05:52:25;66.47;;;23.33;;
29044;SDS011;16133;49.486;12.176;2023-03-01T05:54:51;62.67;;;25.48;;
29044;SDS011;16133;49.486;12.176;2023-03-01T05:57:16;74.70;;;28.08;;
29044;SDS011;16133;49.486;12.176;2023-03-01T05:59:41;75.10;;;27.60;;
29044;SDS011;16133;49.486;12.176;2023-03-01T06:02:07;77.38;;;27.83;;
29044;SDS011;16133;49.486;12.176;2023-03-01T06:04:32;74.63;;;28.25;;
29044;SDS011;16133;49.486;12.176;2023-03-01T06:06:57;82.30;;;29.58;;
29044;SDS011;16133;49.486;12.176;2023-03-01T06:09:22;72.00;;;26.25;;
29044;SDS011;16133;49.486;12.176;2023-03-01T06:11:48;70.22;;;27.00;;
29044;SDS011;16133;49.486;12.176;2023-03-01T06:14:13;79.22;;;30.40;;
29044;SDS011;16133;49.486;12.176;2023-03-01T06:16:39;68.95;;;25.48;;
29044;SDS011;16133;49.486;12.176;2023-03-01T06:19:05;63.00;;;22.85;;
29044;SDS011;16133;49.486;12.176;2023-03-01T06:21:30;65.57;;;24.98;;
29044;SDS011;16133;49.486;12.176;2023-03-01T06:23:55;66.93;;;25.60;;
29044;SDS011;16133;49.486;12.176;2023-03-01T06:26:21;66.13;;;24.77;;
29044;SDS011;16133;49.486;12.176;2023-03-01T06:28:46;65.22;;;23.83;;
29044;SDS011;16133;49.486;12.176;2023-03-01T06:31:11;61.55;;;23.23;;
29044;SDS011;16133;49.486;12.176;2023-03-01T06:33:36;60.10;;;22.58;;
29044;SDS011;16133;49.486;12.176;2023-03-01T06:36:02;71.20;;;25.95;;
29044;SDS011;16133;49.486;12.176;2023-03-01T06:38:27;67.68;;;25.58;;
29044;SDS011;16133;49.486;12.176;2023-03-01T06:40:53;59.30;;;22.40;;
29044;SDS011;16133;49.486;12.176;2023-03-01T06:43:20;59.63;;;23.55;;
29044;SDS011;16133;49.486;12.176;2023-03-01T06:45:46;54.75;;;22.27;;
29044;SDS011;16133;49.486;12.176;2023-03-01T06:48:11;58.90;;;22.55;;
29044;SDS011;16133;49.486;12.176;2023-03-01T06:50:36;57.25;;;21.77;;
29044;SDS011;16133;49.486;12.176;2023-03-01T06:53:03;59.95;;;22.80;;
29044;SDS011;16133;49.486;12.176;2023-03-01T06:55:29;64.10;;;24.13;;
29044;SDS011;16133;49.486;12.176;2023-03-01T06:57:55;58.67;;;25.08;;
29044;SDS011;16133;49.486;12.176;2023-03-01T07:00:22;55.35;;;22.13;;
29044;SDS011;16133;49.486;12.176;2023-03-01T07:02:49;50.45;;;20.75;;
29044;SDS011;16133;49.486;12.176;2023-03-01T07:05:14;53.92;;;21.67;;
29044;SDS011;16133;49.486;12.176;2023-03-01T07:07:39;58.63;;;22.08;;
29044;SDS011;16133;49.486;12.176;2023-03-01T07:10:05;52.85;;;20.13;;
29044;SDS011;16133;49.486;12.176;2023-03-01T07:12:31;53.30;;;20.65;;
29044;SDS011;16133;49.486;12.176;2023-03-01T07:14:57;60.03;;;22.77;;
29044;SDS011;16133;49.486;12.176;2023-03-01T07:17:22;55.78;;;22.20;;
29044;SDS011;16133;49.486;12.176;2023-03-01T07:19:48;50.80;;;20.40;;
29044;SDS011;16133;49.486;12.176;2023-03-01T07:22:13;55.63;;;22.40;;
29044;SDS011;16133;49.486;12.176;2023-03-01T07:24:38;58.13;;;21.00;;
29044;SDS011;16133;49.486;12.176;2023-03-01T07:27:04;62.67;;;23.33;;
29044;SDS011;16133;49.486;12.176;2023-03-01T07:29:29;56.55;;;21.70;;
29044;SDS011;16133;49.486;12.176;2023-03-01T07:31:55;56.03;;;23.13;;
29044;SDS011;16133;49.486;12.176;2023-03-01T07:34:20;54.17;;;22.52;;
29044;SDS011;16133;49.486;12.176;2023-03-01T07:36:46;51.47;;;22.67;;
29044;SDS011;16133;49.486;12.176;2023-03-01T07:39:12;55.88;;;22.52;;
29044;SDS011;16133;49.486;12.176;2023-03-01T07:41:37;53.92;;;21.85;;
29044;SDS011;16133;49.486;12.176;2023-03-01T07:44:03;54.55;;;23.15;;
29044;SDS011;16133;49.486;12.176;2023-03-01T07:46:29;53.53;;;21.38;;
29044;SDS011;16133;49.486;12.176;2023-03-01T07:48:54;58.15;;;22.48;;
29044;SDS011;16133;49.486;12.176;2023-03-01T07:51:19;51.28;;;23.42;;
29044;SDS011;16133;49.486;12.176;2023-03-01T07:53:46;56.78;;;21.83;;
29044;SDS011;16133;49.486;12.176;2023-03-01T07:56:13;54.58;;;22.35;;
29044;SDS011;16133;49.486;12.176;2023-03-01T07:58:40;51.78;;;22.20;;
29044;SDS011;16133;49.486;12.176;2023-03-01T08:01:08;54.22;;;21.60;;
29044;SDS011;16133;49.486;12.176;2023-03-01T08:03:36;59.67;;;22.20;;
29044;SDS011;16133;49.486;12.176;2023-03-01T08:06:03;51.35;;;20.42;;
29044;SDS011;16133;49.486;12.176;2023-03-01T08:08:29;42.55;;;18.67;;
29044;SDS011;16133;49.486;12.176;2023-03-01T08:10:56;54.80;;;20.55;;
29044;SDS011;16133;49.486;12.176;2023-03-01T08:13:22;53.70;;;21.50;;
29044;SDS011;16133;49.486;12.176;2023-03-01T08:15:48;49.53;;;20.25;;
29044;SDS011;16133;49.486;12.176;2023-03-01T08:18:14;57.17;;;22.38;;
29044;SDS011;16133;49.486;12.176;2023-03-01T08:20:44;49.22;;;19.25;;
29044;SDS011;16133;49.486;12.176;2023-03-01T08:23:09;47.22;;;19.40;;
29044;SDS011;16133;49.486;12.176;2023-03-01T08:25:35;49.58;;;19.10;;
29044;SDS011;16133;49.486;12.176;2023-03-01T08:28:00;47.15;;;20.67;;
29044;SDS011;16133;49.486;12.176;2023-03-01T08:30:26;46.85;;;19.30;;
29044;SDS011;16133;49.486;12.176;2023-03-01T08:32:51;48.72;;;19.23;;
29044;SDS011;16133;49.486;12.176;2023-03-01T08:35:17;41.25;;;18.70;;
29044;SDS011;16133;49.486;12.176;2023-03-01T08:37:43;40.30;;;17.95;;
29044;SDS011;16133;49.486;12.176;2023-03-01T08:40:08;48.40;;;19.63;;
29044;SDS011;16133;49.486;12.176;2023-03-01T08:42:35;44.83;;;19.35;;
29044;SDS011;16133;49.486;12.176;2023-03-01T08:45:03;43.45;;;18.48;;
29044;SDS011;16133;49.486;12.176;2023-03-01T08:47:29;51.13;;;19.27;;
29044;SDS011;16133;49.486;12.176;2023-03-01T08:49:54;44.50;;;18.83;;
29044;SDS011;16133;49.486;12.176;2023-03-01T08:52:20;46.17;;;18.40;;
29044;SDS011;16133;49.486;12.176;2023-03-01T08:54:49;47.88;;;19.17;;
29044;SDS011;16133;49.486;12.176;2023-03-01T08:57:14;41.60;;;16.35;;
29044;SDS011;16133;49.486;12.176;2023-03-01T08:59:39;42.50;;;16.50;;
29044;SDS011;16133;49.486;12.176;2023-03-01T09:02:06;43.35;;;16.95;;
29044;SDS011;16133;49.486;12.176;2023-03-01T09:04:37;49.60;;;18.10;;
29044;SDS011;16133;49.486;12.176;2023-03-01T09:07:02;43.58;;;17.13;;
29044;SDS011;16133;49.486;12.176;2023-03-01T09:09:28;42.42;;;18.23;;
29044;SDS011;16133;49.486;12.176;2023-03-01T09:11:53;47.50;;;21.25;;
29044;SDS011;16133;49.486;12.176;2023-03-01T09:14:18;42.55;;;18.85;;
29044;SDS011;16133;49.486;12.176;2023-03-01T09:16:44;42.55;;;17.40;;
29044;SDS011;16133;49.486;12.176;2023-03-01T09:19:09;39.17;;;18.02;;
29044;SDS011;16133;49.486;12.176;2023-03-01T09:21:36;42.15;;;18.17;;
29044;SDS011;16133;49.486;12.176;2023-03-01T09:24:02;40.92;;;17.17;;
29044;SDS011;16133;49.486;12.176;2023-03-01T09:26:27;42.00;;;16.67;;
29044;SDS011;16133;49.486;12.176;2023-03-01T09:28:53;36.75;;;17.23;;
29044;SDS011;16133;49.486;12.176;2023-03-01T09:31:21;38.47;;;15.77;;
29044;SDS011;16133;49.486;12.176;2023-03-01T09:33:48;40.40;;;15.70;;
29044;SDS011;16133;49.486;12.176;2023-03-01T09:36:16;45.83;;;19.10;;
29044;SDS011;16133;49.486;12.176;2023-03-01T09:38:43;38.85;;;16.42;;
29044;SDS011;16133;49.486;12.176;2023-03-01T09:41:10;41.53;;;16.75;;
29044;SDS011;16133;49.486;12.176;2023-03-01T09:43:53;44.08;;;16.20;;
29044;SDS011;16133;49.486;12.176;2023-03-01T09:46:25;46.25;;;18.10;;
29044;SDS011;16133;49.486;12.176;2023-03-01T09:48:53;40.20;;;15.10;;
29044;SDS011;16133;49.486;12.176;2023-03-01T09:51:23;35.97;;;14.48;;
29044;SDS011;16133;49.486;12.176;2023-03-01T09:53:52;29.40;;;14.10;;
29044;SDS011;16133;49.486;12.176;2023-03-01T09:56:20;33.75;;;15.02;;
29044;SDS011;16133;49.486;12.176;2023-03-01T10:01:47;34.53;;;13.50;;
29044;SDS011;16133;49.486;12.176;2023-03-01T10:04:26;38.53;;;15.23;;
29044;SDS011;16133;49.486;12.176;2023-03-01T10:10:26;38.67;;;16.17;;
29044;SDS011;16133;49.486;12.176;2023-03-01T10:13:21;32.20;;;14.00;;
29044;SDS011;16133;49.486;12.176;2023-03-01T10:16:03;31.77;;;14.52;;
29044;SDS011;16133;49.486;12.176;2023-03-01T10:18:35;37.83;;;14.48;;
29044;SDS011;16133;49.486;12.176;2023-03-01T10:21:08;37.75;;;15.60;;
29044;SDS011;16133;49.486;12.176;2023-03-01T10:23:40;34.78;;;14.90;;
29044;SDS011;16133;49.486;12.176;2023-03-01T10:26:12;29.63;;;14.00;;
29044;SDS011;16133;49.486;12.176;2023-03-01T10:29:05;39.67;;;14.97;;
29044;SDS011;16133;49.486;12.176;2023-03-01T10:34:18;32.03;;;13.88;;
29044;SDS011;16133;49.486;12.176;2023-03-01T10:36:53;29.42;;;12.52;;
29044;SDS011;16133;49.486;12.176;2023-03-01T10:39:24;28.15;;;13.27;;
29044;SDS011;16133;49.486;12.176;2023-03-01T10:42:04;35.35;;;13.32;;
29044;SDS011;16133;49.486;12.176;2023-03-01T10:52:28;30.10;;;14.18;;
29044;SDS011;16133;49.486;12.176;2023-03-01T10:54:57;32.63;;;14.95;;
29044;SDS011;16133;49.486;12.176;2023-03-01T10:57:33;32.47;;;13.57;;
29044;SDS011;16133;49.486;12.176;2023-03-01T11:05:24;36.40;;;14.05;;
29044;SDS011;16133;49.486;12.176;2023-03-01T11:07:54;35.53;;;15.23;;
29044;SDS011;16133;49.486;12.176;2023-03-01T11:10:31;33.55;;;13.98;;
29044;SDS011;16133;49.486;12.176;2023-03-01T11:13:17;30.70;;;13.52;;
29044;SDS011;16133;49.486;12.176;2023-03-01T11:18:32;32.03;;;13.90;;
29044;SDS011;16133;49.486;12.176;2023-03-01T11:20:58;34.53;;;14.73;;
29044;SDS011;16133;49.486;12.176;2023-03-01T11:23:27;36.38;;;15.18;;
29044;SDS011;16133;49.486;12.176;2023-03-01T11:26:04;35.20;;;15.38;;
29044;SDS011;16133;49.486;12.176;2023-03-01T11:28:33;32.17;;;14.32;;
29044;SDS011;16133;49.486;12.176;2023-03-01T11:31:09;28.90;;;14.07;;
29044;SDS011;16133;49.486;12.176;2023-03-01T11:33:44;27.00;;;13.23;;
29044;SDS011;16133;49.486;12.176;2023-03-01T11:39:03;39.20;;;15.30;;
29044;SDS011;16133;49.486;12.176;2023-03-01T11:41:48;34.33;;;15.70;;
29044;SDS011;16133;49.486;12.176;2023-03-01T11:44:20;36.00;;;16.73;;
29044;SDS011;16133;49.486;12.176;2023-03-01T11:52:17;45.65;;;16.40;;
29044;SDS011;16133;49.486;12.176;2023-03-01T11:55:02;43.30;;;16.17;;
29044;SDS011;16133;49.486;12.176;2023-03-01T12:00:41;37.00;;;16.17;;
29044;SDS011;16133;49.486;12.176;2023-03-01T12:22:23;33.60;;;16.02;;
29044;SDS011;16133;49.486;12.176;2023-03-01T12:30:25;38.22;;;15.45;;
29044;SDS011;16133;49.486;12.176;2023-03-01T12:44:15;35.95;;;14.80;;
29044;SDS011;16133;49.486;12.176;2023-03-01T12:49:33;34.40;;;15.75;;
29044;SDS011;16133;49.486;12.176;2023-03-01T12:54:47;38.47;;;16.55;;
29044;SDS011;16133;49.486;12.176;2023-03-01T12:57:38;36.58;;;16.50;;
29044;SDS011;16133;49.486;12.176;2023-03-01T13:03:02;34.03;;;15.52;;
29044;SDS011;16133;49.486;12.176;2023-03-01T13:10:46;37.67;;;16.35;;
29044;SDS011;16133;49.486;12.176;2023-03-01T13:13:22;31.75;;;15.20;;
29044;SDS011;16133;49.486;12.176;2023-03-01T13:15:49;36.17;;;15.63;;
29044;SDS011;16133;49.486;12.176;2023-03-01T13:20:46;33.78;;;14.45;;
29044;SDS011;16133;49.486;12.176;2023-03-01T13:36:46;33.20;;;15.00;;
29044;SDS011;16133;49.486;12.176;2023-03-01T13:39:28;30.85;;;14.95;;
29044;SDS011;16133;49.486;12.176;2023-03-01T13:41:58;38.58;;;16.45;;
29044;SDS011;16133;49.486;12.176;2023-03-01T13:44:35;34.47;;;15.90;;
29044;SDS011;16133;49.486;12.176;2023-03-01T13:50:15;40.22;;;16.38;;
29044;SDS011;16133;49.486;12.176;2023-03-01T13:57:38;35.20;;;15.05;;
29044;SDS011;16133;49.486;12.176;2023-03-01T14:00:04;39.63;;;14.77;;
29044;SDS011;16133;49.486;12.176;2023-03-01T14:02:30;34.55;;;16.00;;
29044;SDS011;16133;49.486;12.176;2023-03-01T14:04:57;35.08;;;15.35;;
29044;SDS011;16133;49.486;12.176;2023-03-01T14:07:24;31.65;;;14.63;;
29044;SDS011;16133;49.486;12.176;2023-03-01T14:09:57;36.13;;;16.13;;
29044;SDS011;16133;49.486;12.176;2023-03-01T14:12:38;34.13;;;15.40;;
29044;SDS011;16133;49.486;12.176;2023-03-01T14:20:46;37.25;;;16.50;;
29044;SDS011;16133;49.486;12.176;2023-03-01T14:23:18;34.00;;;14.90;;
29044;SDS011;16133;49.486;12.176;2023-03-01T14:25:46;34.92;;;15.55;;
29044;SDS011;16133;49.486;12.176;2023-03-01T14:28:21;39.85;;;17.45;;
29044;SDS011;16133;49.486;12.176;2023-03-01T14:30:55;37.90;;;18.30;;
29044;SDS011;16133;49.486;12.176;2023-03-01T14:36:10;33.95;;;15.68;;
29044;SDS011;16133;49.486;12.176;2023-03-01T14:38:41;38.03;;;15.57;;
29044;SDS011;16133;49.486;12.176;2023-03-01T14:41:09;42.22;;;16.35;;
29044;SDS011;16133;49.486;12.176;2023-03-01T14:43:38;40.13;;;16.00;;
29044;SDS011;16133;49.486;12.176;2023-03-01T14:46:06;35.13;;;16.25;;
29044;SDS011;16133;49.486;12.176;2023-03-01T14:48:42;35.53;;;15.60;;
29044;SDS011;16133;49.486;12.176;2023-03-01T14:51:07;37.75;;;16.73;;
29044;SDS011;16133;49.486;12.176;2023-03-01T14:53:33;40.40;;;16.35;;
29044;SDS011;16133;49.486;12.176;2023-03-01T14:55:59;36.72;;;15.88;;
29044;SDS011;16133;49.486;12.176;2023-03-01T14:58:31;34.08;;;15.82;;
29044;SDS011;16133;49.486;12.176;2023-03-01T15:00:59;38.75;;;17.08;;
29044;SDS011;16133;49.486;12.176;2023-03-01T15:03:38;43.42;;;17.42;;
29044;SDS011;16133;49.486;12.176;2023-03-01T15:06:09;36.67;;;16.63;;
29044;SDS011;16133;49.486;12.176;2023-03-01T15:08:37;36.42;;;15.38;;
29044;SDS011;16133;49.486;12.176;2023-03-01T15:13:38;36.15;;;16.02;;
29044;SDS011;16133;49.486;12.176;2023-03-01T15:16:09;41.58;;;16.58;;
29044;SDS011;16133;49.486;12.176;2023-03-01T15:18:51;41.78;;;15.70;;
29044;SDS011;16133;49.486;12.176;2023-03-01T15:21:32;38.45;;;16.63;;
29044;SDS011;16133;49.486;12.176;2023-03-01T15:26:33;36.15;;;16.50;;
29044;SDS011;16133;49.486;12.176;2023-03-01T15:29:03;34.15;;;14.40;;
29044;SDS011;16133;49.486;12.176;2023-03-01T15:31:29;35.53;;;15.77;;
29044;SDS011;16133;49.486;12.176;2023-03-01T15:36:51;37.25;;;15.85;;
29044;SDS011;16133;49.486;12.176;2023-03-01T15:39:31;35.30;;;16.13;;
29044;SDS011;16133;49.486;12.176;2023-03-01T15:42:03;39.17;;;15.90;;
29044;SDS011;16133;49.486;12.176;2023-03-01T15:44:36;41.03;;;16.15;;
29044;SDS011;16133;49.486;12.176;2023-03-01T15:47:07;35.92;;;15.75;;
29044;SDS011;16133;49.486;12.176;2023-03-01T15:49:47;37.03;;;15.40;;
29044;SDS011;16133;49.486;12.176;2023-03-01T15:52:21;35.00;;;15.88;;
29044;SDS011;16133;49.486;12.176;2023-03-01T15:54:58;36.70;;;16.15;;
29044;SDS011;16133;49.486;12.176;2023-03-01T15:57:26;34.95;;;14.88;;
29044;SDS011;16133;49.486;12.176;2023-03-01T15:59:51;38.47;;;15.65;;
29044;SDS011;16133;49.486;12.176;2023-03-01T16:02:17;33.80;;;14.43;;
29044;SDS011;16133;49.486;12.176;2023-03-01T16:04:42;33.13;;;14.70;;
29044;SDS011;16133;49.486;12.176;2023-03-01T16:07:08;37.75;;;16.52;;
29044;SDS011;16133;49.486;12.176;2023-03-01T16:09:34;33.95;;;14.43;;
29044;SDS011;16133;49.486;12.176;2023-03-01T16:12:00;35.03;;;14.90;;
29044;SDS011;16133;49.486;12.176;2023-03-01T16:14:26;35.90;;;15.02;;
29044;SDS011;16133;49.486;12.176;2023-03-01T16:16:52;39.30;;;15.60;;
29044;SDS011;16133;49.486;12.176;2023-03-01T16:19:17;36.75;;;16.38;;
29044;SDS011;16133;49.486;12.176;2023-03-01T16:21:42;39.85;;;15.27;;
29044;SDS011;16133;49.486;12.176;2023-03-01T16:24:11;34.83;;;15.27;;
29044;SDS011;16133;49.486;12.176;2023-03-01T16:26:37;37.58;;;15.43;;
29044;SDS011;16133;49.486;12.176;2023-03-01T16:29:02;45.13;;;18.42;;
29044;SDS011;16133;49.486;12.176;2023-03-01T16:31:28;42.30;;;16.38;;
29044;SDS011;16133;49.486;12.176;2023-03-01T16:33:54;44.80;;;17.70;;